Time;durP1;ratioP1;P1;durP2;ratioP2;P2;SDS_P1;SDS_P2;PMS_P1;PMS_P2;Temp;Humidity;BMP_temperature;BMP_pressure;BME280_temperature;BME280_humidity;BME280_pressure;Samples;Min_cycle;Max_cycle;Signal;HPM_P1;HPM_P2
2021/08/21 00:02:00;;;;;;;6.10;5.50;;;;;;;20.26;79.61;96539.34;5075365;28;20171;-59
2021/08/21 00:04:25;;;;;;;5.40;5.00;;;;;;;20.34;79.61;96536.06;5074723;28;20186;-60
2021/08/21 00:06:50;;;;;;;6.90;5.87;;;;;;;20.41;79.37;96544.53;5075360;28;20182;-59
2021/08/21 00:09:16;;;;;;;5.90;5.30;;;;;;;20.40;79.14;96544.78;5075185;28;20561;-67
2021/08/21 00:11:41;;;;;;;5.93;5.33;;;;;;;20.47;79.16;96539.94;5074917;28;20200;-59
2021/08/21 00:14:07;;;;;;;6.13;5.07;;;;;;;20.46;79.06;96539.13;5067725;28;20199;-67
2021/08/21 00:16:33;;;;;;;5.10;4.70;;;;;;;20.38;79.61;96537.06;5055296;28;20195;-66
2021/08/21 00:18:59;;;;;;;6.07;5.40;;;;;;;20.42;79.48;96539.97;5055003;28;20175;-61
2021/08/21 00:21:24;;;;;;;5.80;5.30;;;;;;;20.36;79.99;96536.56;5054811;28;20233;-67
2021/08/21 00:23:50;;;;;;;5.97;5.47;;;;;;;20.40;80.13;96542.13;5054284;28;20442;-67
2021/08/21 00:26:16;;;;;;;6.47;5.97;;;;;;;20.41;79.51;96531.19;5054788;28;20203;-67
2021/08/21 00:28:41;;;;;;;5.97;5.50;;;;;;;20.40;79.74;96536.78;5068315;28;20621;-66
2021/08/21 00:31:06;;;;;;;6.40;5.80;;;;;;;20.40;80.01;96534.91;5074946;28;20285;-66
2021/08/21 00:33:32;;;;;;;7.57;5.90;;;;;;;20.40;79.98;96537.59;5074422;28;20202;-66
2021/08/21 00:35:59;;;;;;;6.90;5.50;;;;;;;20.39;79.80;96528.00;5074793;28;20242;-59
2021/08/21 00:38:24;;;;;;;6.03;5.43;;;;;;;20.42;79.79;96526.63;5073498;28;20467;-59
2021/08/21 00:40:49;;;;;;;6.77;6.17;;;;;;;20.47;79.67;96534.59;5074690;28;20198;-59
2021/08/21 00:43:16;;;;;;;6.60;6.10;;;;;;;20.45;79.67;96531.41;5073648;28;20261;-67
2021/08/21 00:45:41;;;;;;;7.00;6.40;;;;;;;20.43;79.65;96533.56;5074737;28;20191;-59
2021/08/21 00:48:07;;;;;;;6.83;6.30;;;;;;;20.47;79.35;96529.25;5074717;28;20775;-66
2021/08/21 00:50:32;;;;;;;7.43;6.83;;;;;;;20.45;79.55;96526.84;5071966;28;20211;-66
2021/08/21 00:52:57;;;;;;;7.20;6.60;;;;;;;20.48;79.15;96528.97;5054307;28;20233;-60
2021/08/21 00:55:24;;;;;;;6.63;6.03;;;;;;;20.40;79.43;96523.44;5054491;28;20728;-66
2021/08/21 00:57:50;;;;;;;6.10;5.70;;;;;;;20.43;79.39;96523.69;5054497;28;20270;-66
2021/08/21 01:00:15;;;;;;;7.03;6.53;;;;;;;20.46;79.31;96520.44;5054476;28;20936;-66
2021/08/21 01:02:41;;;;;;;6.80;6.20;;;;;;;20.44;79.26;96514.59;5054218;28;20634;-60
2021/08/21 01:05:08;;;;;;;7.23;6.60;;;;;;;20.36;79.43;96515.19;5054424;28;20192;-66
2021/08/21 01:07:36;;;;;;;6.60;6.00;;;;;;;20.34;79.93;96513.91;5074181;28;20621;-67
2021/08/21 01:10:07;;;;;;;6.87;6.37;;;;;;;20.33;80.22;96520.31;5074253;28;20500;-59
2021/08/21 01:12:34;;;;;;;6.83;6.27;;;;;;;20.30;80.21;96513.69;5074364;28;20435;-59
2021/08/21 01:15:00;;;;;;;7.10;6.50;;;;;;;20.32;79.90;96516.88;5073840;28;20487;-67
2021/08/21 01:17:26;;;;;;;7.70;6.93;;;;;;;20.33;80.21;96514.97;5074129;28;20496;-59
2021/08/21 01:19:52;;;;;;;6.87;6.37;;;;;;;20.34;80.03;96516.56;5073184;28;20577;-60
2021/08/21 01:22:21;;;;;;;6.60;6.00;;;;;;;20.36;79.43;96512.53;5054299;28;20896;-67
2021/08/21 01:24:50;;;;;;;7.07;6.43;;;;;;;20.25;80.15;96516.41;5053077;28;20445;-67
2021/08/21 01:27:23;;;;;;;6.70;6.20;;;;;;;20.26;79.90;96518.00;5053922;28;20888;-66
2021/08/21 01:29:50;;;;;;;6.50;5.90;;;;;;;20.20;80.31;96518.34;5054815;28;20505;-59
2021/08/21 01:32:17;;;;;;;6.97;6.37;;;;;;;20.16;80.36;96517.28;5053743;28;20548;-60
2021/08/21 01:34:43;;;;;;;6.40;5.80;;;;;;;20.13;80.16;96517.81;5072336;28;20456;-66
2021/08/21 01:37:08;;;;;;;6.90;6.40;;;;;;;20.10;80.55;96527.19;5073729;28;20413;-59
2021/08/21 01:39:33;;;;;;;6.27;5.70;;;;;;;20.12;79.96;96513.56;5073829;28;20206;-59
2021/08/21 01:41:59;;;;;;;6.53;5.93;;;;;;;20.08;80.33;96520.53;5073685;28;20201;-66
2021/08/21 01:44:25;;;;;;;6.20;5.70;;;;;;;20.00;80.31;96518.50;5072365;28;20236;-60
2021/08/21 01:46:50;;;;;;;7.10;6.50;;;;;;;20.02;79.97;96513.69;5059832;28;20971;-67
2021/08/21 01:49:18;;;;;;;6.17;5.67;;;;;;;19.98;80.26;96513.44;5053555;28;20167;-59
2021/08/21 01:51:45;;;;;;;6.70;6.20;;;;;;;19.95;80.12;96518.50;5052259;28;20175;-59
2021/08/21 01:54:19;;;;;;;6.13;5.63;;;;;;;19.91;80.46;96515.63;5068608;28;20807;-66
2021/08/21 01:56:49;;;;;;;6.80;6.20;;;;;;;19.92;80.00;96509.22;5073638;28;20397;-59
2021/08/21 01:59:54;;;;;;;6.03;5.53;;;;;;;19.91;80.13;96506.84;5073557;28;20767;-60
2021/08/21 02:02:22;;;;;;;7.43;6.73;;;;;;;19.82;80.39;96509.28;5073083;28;20421;-67
2021/08/21 02:04:47;;;;;;;6.77;6.20;;;;;;;19.78;80.08;96507.47;5072937;28;20424;-59
2021/08/21 02:07:12;;;;;;;6.67;6.03;;;;;;;19.77;80.36;96505.88;5071750;28;20465;-59
2021/08/21 02:09:38;;;;;;;5.70;5.20;;;;;;;19.73;80.51;96510.97;5053303;28;20174;-59
2021/08/21 02:12:05;;;;;;;6.30;5.70;;;;;;;19.73;80.28;96499.53;5053269;28;20163;-59
2021/08/21 02:14:32;;;;;;;6.73;6.13;;;;;;;19.72;79.75;96498.72;5052777;28;20199;-66
2021/08/21 02:17:00;;;;;;;6.40;5.90;;;;;;;19.68;79.84;96502.22;5053296;28;20434;-59
2021/08/21 02:19:27;;;;;;;6.27;5.70;;;;;;;19.62;80.13;96503.34;5053276;28;20458;-66
2021/08/21 02:21:54;;;;;;;6.00;5.50;;;;;;;19.61;79.90;96497.22;5053694;28;20802;-60
2021/08/21 02:24:24;;;;;;;6.20;5.70;;;;;;;19.60;80.42;96497.50;5054231;28;20438;-59
2021/08/21 02:26:51;;;;;;;9.17;6.00;;;;;;;19.57;80.35;96492.72;5053335;28;20485;-59
2021/08/21 02:29:16;;;;;;;5.80;5.30;;;;;;;19.50;80.38;96495.69;5053179;28;20394;-66
2021/08/21 02:31:41;;;;;;;5.87;5.37;;;;;;;19.42;80.90;96493.66;5053261;28;20414;-59
2021/08/21 02:34:07;;;;;;;6.03;5.53;;;;;;;19.38;80.82;96496.06;5066834;28;20207;-60
2021/08/21 02:36:33;;;;;;;8.87;6.83;;;;;;;19.35;80.96;96493.94;5074548;28;20193;-59
2021/08/21 02:38:59;;;;;;;7.50;6.27;;;;;;;19.38;80.87;96488.06;5056974;28;20183;-66
2021/08/21 02:41:24;;;;;;;6.77;6.27;;;;;;;19.33;80.91;96489.97;5057003;28;20409;-66
2021/08/21 02:43:50;;;;;;;6.53;5.97;;;;;;;19.25;81.46;96486.00;5056556;28;20172;-59
2021/08/21 02:46:15;;;;;;;9.00;6.20;;;;;;;19.24;81.19;96492.38;5056932;28;20187;-59
2021/08/21 02:48:41;;;;;;;5.70;5.23;;;;;;;19.25;81.26;96487.84;5056999;28;20630;-59
2021/08/21 02:51:06;;;;;;;6.30;5.70;;;;;;;19.26;80.81;96484.91;5057003;28;20170;-59
2021/08/21 02:53:32;;;;;;;5.43;4.93;;;;;;;19.23;80.75;96482.00;5074672;28;20697;-59
2021/08/21 02:55:57;;;;;;;6.20;5.57;;;;;;;19.18;81.01;96474.84;5076602;28;20215;-59
2021/08/21 02:58:23;;;;;;;5.50;5.00;;;;;;;19.20;80.52;96482.56;5076813;28;20163;-59
2021/08/21 03:00:48;;;;;;;5.67;5.20;;;;;;;19.15;80.85;96475.38;5074983;28;20174;-59
2021/08/21 03:03:14;;;;;;;6.40;5.80;;;;;;;19.15;80.90;96477.28;5076321;28;20171;-66
2021/08/21 03:05:40;;;;;;;5.77;5.27;;;;;;;19.06;80.94;96476.28;5076385;28;20179;-66
2021/08/21 03:08:05;;;;;;;5.30;4.80;;;;;;;19.07;81.20;96481.31;5076485;28;20235;-66
2021/08/21 03:10:31;;;;;;;5.07;4.67;;;;;;;19.05;80.85;96480.78;5076457;28;20170;-59
2021/08/21 03:12:57;;;;;;;5.23;4.93;;;;;;;19.03;80.79;96482.94;5076079;28;20178;-66
2021/08/21 03:15:24;;;;;;;5.20;4.70;;;;;;;19.06;80.81;96481.59;5071477;28;20560;-59
2021/08/21 03:17:50;;;;;;;5.33;4.93;;;;;;;18.98;80.66;96482.16;5056618;28;20168;-59
2021/08/21 03:20:15;;;;;;;6.67;5.00;;;;;;;18.90;81.12;96486.19;5056177;28;20406;-66
2021/08/21 03:22:41;;;;;;;5.90;5.30;;;;;;;18.85;81.57;96483.56;5055980;28;20402;-67
2021/08/21 03:25:06;;;;;;;5.60;5.20;;;;;;;18.86;81.09;96487.03;5056018;28;20230;-66
2021/08/21 03:27:32;;;;;;;6.50;4.70;;;;;;;18.81;81.79;96479.06;5056226;28;20159;-67
2021/08/21 03:29:57;;;;;;;5.43;4.93;;;;;;;18.67;82.02;96481.53;5059111;28;20690;-66
2021/08/21 03:32:22;;;;;;;5.50;5.00;;;;;;;18.70;81.94;96486.31;5076026;28;20633;-59
2021/08/21 03:34:48;;;;;;;5.63;5.23;;;;;;;18.63;82.46;96482.34;5075437;28;20201;-66
2021/08/21 03:37:13;;;;;;;6.73;6.13;;;;;;;18.71;81.82;96484.44;5076092;28;20169;-59
2021/08/21 03:39:40;;;;;;;5.87;5.27;;;;;;;18.69;82.06;96486.56;5074601;28;20170;-66
2021/08/21 03:42:06;;;;;;;5.27;4.80;;;;;;;18.69;81.69;96479.41;5075936;28;20181;-59
2021/08/21 03:44:31;;;;;;;5.53;5.13;;;;;;;18.68;81.60;96488.44;5074753;28;21025;-59
2021/08/21 03:46:57;;;;;;;5.87;5.37;;;;;;;18.72;81.59;96489.50;5075573;28;20417;-59
2021/08/21 03:49:22;;;;;;;5.17;4.63;;;;;;;18.72;81.30;96488.69;5075843;28;20170;-66
2021/08/21 03:51:48;;;;;;;5.77;5.27;;;;;;;18.65;81.74;96491.66;5075669;28;20171;-59
2021/08/21 03:54:13;;;;;;;5.47;4.97;;;;;;;18.60;82.30;96493.53;5075200;28;20203;-59
2021/08/21 03:56:39;;;;;;;5.17;4.80;;;;;;;18.58;82.25;96485.03;5075627;28;20503;-66
2021/08/21 03:59:04;;;;;;;5.80;5.30;;;;;;;18.58;81.83;96485.03;5075132;28;20171;-65
2021/08/21 04:01:30;;;;;;;6.20;5.60;;;;;;;18.62;81.53;96481.56;5055495;28;20255;-59
2021/08/21 04:03:56;;;;;;;5.93;5.43;;;;;;;18.62;81.23;96484.22;5054976;28;20164;-59
2021/08/21 04:06:21;;;;;;;5.70;5.30;;;;;;;18.60;81.83;96482.88;5055436;28;20410;-59
2021/08/21 04:08:46;;;;;;;6.07;5.43;;;;;;;18.51;82.45;96482.66;5055344;28;20598;-59
2021/08/21 04:11:12;;;;;;;5.80;5.40;;;;;;;18.50;82.39;96482.94;5055372;28;20247;-59
2021/08/21 04:13:37;;;;;;;5.17;4.70;;;;;;;18.40;82.30;96483.75;5053528;28;20207;-66
2021/08/21 04:16:03;;;;;;;6.27;5.77;;;;;;;18.43;82.71;96489.34;5073664;28;20196;-66
2021/08/21 04:18:28;;;;;;;5.67;5.17;;;;;;;18.43;82.42;96492.00;5075457;28;20248;-59
2021/08/21 04:20:53;;;;;;;5.73;5.30;;;;;;;18.48;82.04;96491.19;5075274;28;20174;-59
2021/08/21 04:23:19;;;;;;;5.37;4.90;;;;;;;18.40;82.22;96489.88;5074774;28;20174;-59
2021/08/21 04:25:44;;;;;;;5.70;5.20;;;;;;;18.39;82.23;96493.59;5074935;28;20667;-67
2021/08/21 04:28:10;;;;;;;5.57;5.17;;;;;;;18.38;82.32;96492.00;5075087;28;20181;-59
2021/08/21 04:30:35;;;;;;;5.63;5.10;;;;;;;18.34;82.76;96493.59;5057836;28;20175;-59
2021/08/21 04:33:00;;;;;;;6.00;5.40;;;;;;;18.44;81.75;96495.47;5059833;28;20224;-66
2021/08/21 04:35:26;;;;;;;5.43;4.93;;;;;;;18.39;82.05;96498.09;5074727;28;20199;-66
2021/08/21 04:37:51;;;;;;;5.83;5.20;;;;;;;18.37;82.41;96500.25;5067799;28;20168;-59
2021/08/21 04:40:17;;;;;;;5.80;4.90;;;;;;;18.35;82.12;96503.16;5054828;28;20580;-59
2021/08/21 04:42:43;;;;;;;5.43;4.93;;;;;;;18.35;82.63;96497.84;5054475;28;20499;-59
2021/08/21 04:45:09;;;;;;;5.80;5.30;;;;;;;18.36;82.64;96499.44;5053373;28;20191;-59
2021/08/21 04:47:35;;;;;;;5.70;5.20;;;;;;;18.43;82.01;96500.00;5054725;28;20171;-59
2021/08/21 04:50:03;;;;;;;7.23;5.40;;;;;;;18.46;81.57;96499.44;5054552;28;20880;-60
2021/08/21 04:52:28;;;;;;;6.27;5.67;;;;;;;18.38;82.58;96507.16;5060096;28;20424;-66
2021/08/21 04:54:54;;;;;;;5.20;4.80;;;;;;;18.37;82.72;96503.69;5074068;28;20456;-59
2021/08/21 04:57:19;;;;;;;5.53;5.10;;;;;;;18.46;82.99;96506.66;5074411;28;20170;-59
2021/08/21 04:59:44;;;;;;;6.17;5.60;;;;;;;18.48;82.74;96507.16;5073965;28;20224;-66
2021/08/21 05:02:10;;;;;;;6.00;5.50;;;;;;;18.56;82.87;96508.44;5074309;28;20513;-66
2021/08/21 05:04:35;;;;;;;6.00;5.43;;;;;;;18.61;82.55;96511.09;5073872;28;20186;-66
2021/08/21 05:07:01;;;;;;;6.43;5.67;;;;;;;18.59;82.87;96506.03;5070760;28;20272;-59
2021/08/21 05:09:26;;;;;;;6.73;6.13;;;;;;;18.66;83.08;96514.53;5074446;28;20185;-66
2021/08/21 05:11:51;;;;;;;5.80;5.40;;;;;;;18.73;82.71;96514.25;5054495;28;20175;-66
2021/08/21 05:14:17;;;;;;;6.20;5.70;;;;;;;18.74;83.04;96510.50;5053747;28;20211;-59
2021/08/21 05:16:46;;;;;;;6.20;5.70;;;;;;;18.78;83.25;96506.25;5052775;28;20190;-59
2021/08/21 05:19:23;;;;;;;6.67;6.10;;;;;;;18.78;83.64;96501.72;5054217;28;20567;-66
2021/08/21 05:21:51;;;;;;;6.57;6.07;;;;;;;18.88;83.80;96508.88;5053950;28;20803;-66
2021/08/21 05:24:17;;;;;;;6.90;6.30;;;;;;;18.97;83.79;96501.91;5053283;28;20453;-66
2021/08/21 05:26:44;;;;;;;5.97;5.47;;;;;;;18.99;83.87;96508.53;5054014;28;20529;-66
2021/08/21 05:29:12;;;;;;;5.70;5.30;;;;;;;19.00;84.13;96510.13;5054081;28;20183;-60
2021/08/21 05:31:38;;;;;;;6.77;6.13;;;;;;;19.08;84.26;96501.53;5062564;28;20433;-59
2021/08/21 05:34:03;;;;;;;6.10;5.60;;;;;;;19.15;84.33;96503.91;5073255;28;20457;-66
2021/08/21 05:36:28;;;;;;;7.10;6.20;;;;;;;19.17;84.42;96507.88;5074001;28;20262;-66
2021/08/21 05:38:55;;;;;;;5.87;5.37;;;;;;;19.19;84.51;96496.94;5073723;28;20629;-59
2021/08/21 05:41:20;;;;;;;8.10;5.83;;;;;;;19.23;84.79;96503.31;5073915;28;20166;-59
2021/08/21 05:43:45;;;;;;;6.20;5.70;;;;;;;19.32;84.50;96504.34;5071456;28;20424;-66
2021/08/21 05:46:11;;;;;;;6.47;5.97;;;;;;;19.34;85.36;96500.34;5053701;28;20668;-65
2021/08/21 05:48:36;;;;;;;7.40;6.80;;;;;;;19.38;85.06;96505.94;5053605;28;20601;-66
2021/08/21 05:51:01;;;;;;;6.40;5.70;;;;;;;19.46;85.04;96507.97;5053540;28;20163;-59
2021/08/21 05:53:27;;;;;;;6.50;6.00;;;;;;;19.52;84.63;96514.88;5053246;28;20172;-66
2021/08/21 05:55:53;;;;;;;7.33;6.63;;;;;;;19.56;84.84;96512.44;5053583;28;20215;-59
2021/08/21 05:58:19;;;;;;;7.03;6.43;;;;;;;19.61;84.83;96518.53;5053411;28;20174;-59
2021/08/21 06:00:44;;;;;;;6.30;5.80;;;;;;;19.62;85.16;96516.69;5072214;28;20417;-59
2021/08/21 06:03:09;;;;;;;6.60;6.00;;;;;;;19.70;85.36;96516.06;5073523;28;20163;-59
2021/08/21 06:05:35;;;;;;;6.97;5.57;;;;;;;19.77;85.29;96514.69;5073354;28;20312;-66
2021/08/21 06:08:00;;;;;;;5.50;5.00;;;;;;;19.76;85.12;96520.28;5063665;28;20179;-66
2021/08/21 06:10:26;;;;;;;6.30;5.70;;;;;;;19.82;85.23;96527.19;5052521;28;20176;-59
2021/08/21 06:12:51;;;;;;;6.57;6.00;;;;;;;19.91;84.71;96522.84;5053095;28;20648;-66
2021/08/21 06:15:17;;;;;;;6.43;5.83;;;;;;;19.95;84.60;96519.31;5053095;28;20221;-66
2021/08/21 06:17:42;;;;;;;6.10;5.60;;;;;;;20.01;84.03;96526.22;5053202;28;20202;-66
2021/08/21 06:20:08;;;;;;;7.83;5.87;;;;;;;20.05;84.24;96521.09;5053176;28;20190;-59
2021/08/21 06:22:33;;;;;;;6.90;5.90;;;;;;;20.05;84.27;96526.44;5060411;28;20166;-59
2021/08/21 06:24:59;;;;;;;6.13;5.63;;;;;;;20.10;84.00;96524.53;5072677;28;20277;-67
2021/08/21 06:27:24;;;;;;;6.20;5.70;;;;;;;20.12;83.94;96529.56;5073347;28;20173;-67
2021/08/21 06:29:49;;;;;;;5.83;5.33;;;;;;;20.14;83.92;96522.88;5073362;28;20170;-66
2021/08/21 06:32:15;;;;;;;6.07;5.57;;;;;;;20.11;82.39;96528.00;5073281;28;20573;-59
2021/08/21 06:34:40;;;;;;;7.53;5.97;;;;;;;20.18;82.91;96531.94;5053544;28;20234;-66
2021/08/21 06:37:06;;;;;;;5.90;5.43;;;;;;;20.27;82.69;96532.91;5058388;28;20254;-66
2021/08/21 06:39:33;;;;;;;5.53;5.13;;;;;;;20.31;82.88;96527.81;5064744;28;20622;-59
2021/08/21 06:41:58;;;;;;;5.53;5.00;;;;;;;20.37;82.83;96532.81;5053006;28;20642;-59
2021/08/21 06:44:24;;;;;;;6.00;5.40;;;;;;;20.42;82.64;96527.41;5052472;28;20433;-66
2021/08/21 06:46:49;;;;;;;6.20;5.70;;;;;;;20.47;82.87;96524.69;5053384;28;20171;-59
2021/08/21 06:49:15;;;;;;;5.70;5.20;;;;;;;20.52;82.77;96528.41;5052936;28;20568;-65
2021/08/21 06:51:40;;;;;;;6.30;5.80;;;;;;;20.58;83.02;96527.25;5053292;28;20250;-66
2021/08/21 06:54:05;;;;;;;5.87;5.33;;;;;;;20.65;82.92;96525.84;5058177;28;20656;-66
2021/08/21 06:56:31;;;;;;;6.60;5.90;;;;;;;20.68;82.95;96527.94;5072846;28;20652;-59
2021/08/21 06:58:56;;;;;;;5.87;5.37;;;;;;;20.67;82.51;96531.69;5072961;28;20179;-68
2021/08/21 07:01:21;;;;;;;6.53;6.00;;;;;;;20.51;78.52;96519.56;5072813;28;20657;-64
2021/08/21 07:03:47;;;;;;;7.50;5.97;;;;;;;20.60;80.28;96525.09;5072526;28;20539;-70
2021/08/21 07:06:12;;;;;;;7.03;6.23;;;;;;;20.70;80.33;96522.31;5072804;28;20194;-69
2021/08/21 07:08:38;;;;;;;5.70;5.20;;;;;;;20.76;80.85;96530.00;5068358;28;20676;-64
2021/08/21 07:11:03;;;;;;;6.07;5.47;;;;;;;20.85;81.04;96532.81;5052856;28;20175;-64
2021/08/21 07:13:28;;;;;;;6.20;5.70;;;;;;;20.87;80.35;96531.44;5052257;28;20167;-69
2021/08/21 07:15:54;;;;;;;7.93;6.00;;;;;;;20.86;79.08;96535.19;5052569;28;20195;-69
2021/08/21 07:18:19;;;;;;;6.07;5.53;;;;;;;20.89;78.96;96536.50;5052612;28;20226;-64
2021/08/21 07:20:45;;;;;;;6.17;5.57;;;;;;;20.96;79.73;96534.28;5052786;28;20254;-69
2021/08/21 07:23:10;;;;;;;5.90;5.40;;;;;;;21.03;79.86;96535.56;5057352;28;20179;-64
2021/08/21 07:25:36;;;;;;;5.57;5.07;;;;;;;21.06;80.16;96531.50;5064572;28;20206;-64
2021/08/21 07:28:01;;;;;;;6.53;5.83;;;;;;;20.97;78.49;96533.19;5056333;28;20525;-69
2021/08/21 07:30:27;;;;;;;8.53;6.13;;;;;;;20.99;76.76;96531.03;5056247;28;20171;-64
2021/08/21 07:32:52;;;;;;;6.20;5.70;;;;;;;20.98;77.10;96527.56;5055857;28;20229;-65
2021/08/21 07:35:17;;;;;;;5.43;4.93;;;;;;;21.09;77.24;96526.38;5056016;28;20213;-64
2021/08/21 07:37:43;;;;;;;5.63;5.13;;;;;;;21.20;78.06;96521.69;5056162;28;20638;-63
2021/08/21 07:40:09;;;;;;;5.63;5.13;;;;;;;21.29;78.47;96518.06;5060716;28;20202;-64
2021/08/21 07:42:35;;;;;;;5.73;5.23;;;;;;;21.38;78.59;96524.34;5069058;28;20223;-67
2021/08/21 07:45:01;;;;;;;6.27;5.60;;;;;;;21.43;78.15;96521.59;5075721;28;20425;-64
2021/08/21 07:47:26;;;;;;;6.30;5.73;;;;;;;21.39;76.82;96517.94;5074574;28;20171;-62
2021/08/21 07:49:51;;;;;;;5.50;4.93;;;;;;;21.55;76.82;96521.16;5075828;28;20163;-69
2021/08/21 07:52:17;;;;;;;5.60;5.10;;;;;;;21.54;76.63;96522.28;5075803;28;20713;-69
2021/08/21 07:54:43;;;;;;;5.50;5.10;;;;;;;21.61;77.09;96527.25;5073855;28;20211;-64
2021/08/21 07:57:08;;;;;;;6.10;4.90;;;;;;;21.53;75.37;96526.00;5063439;28;20211;-69
2021/08/21 07:59:33;;;;;;;6.80;5.47;;;;;;;21.58;74.54;96527.84;5055557;28;20198;-64
2021/08/21 08:01:59;;;;;;;6.23;4.90;;;;;;;21.58;74.79;96538.53;5055504;28;20233;-64
2021/08/21 08:04:25;;;;;;;5.73;5.23;;;;;;;21.78;74.55;96539.00;5055088;28;20194;-70
2021/08/21 08:06:51;;;;;;;4.80;4.40;;;;;;;21.97;74.38;96537.13;5055564;28;20167;-64
2021/08/21 08:09:16;;;;;;;7.83;6.90;;;;;;;21.87;73.34;96533.81;5068300;28;20429;-68
2021/08/21 08:11:42;;;;;;;6.27;5.23;;;;;;;21.72;72.81;96534.84;5075617;28;20409;-64
2021/08/21 08:14:07;;;;;;;6.03;4.90;;;;;;;21.97;73.45;96547.84;5074722;28;20201;-64
2021/08/21 08:16:32;;;;;;;6.53;5.93;;;;;;;21.99;72.03;96537.63;5075251;28;20171;-69
2021/08/21 08:18:58;;;;;;;5.33;4.90;;;;;;;22.07;72.55;96542.28;5075258;28;20179;-64
2021/08/21 08:21:23;;;;;;;4.90;4.50;;;;;;;22.22;72.53;96547.41;5063421;28;20249;-64
2021/08/21 08:23:49;;;;;;;5.30;4.87;;;;;;;22.25;72.54;96544.13;5054452;28;20178;-69
2021/08/21 08:26:15;;;;;;;5.50;5.10;;;;;;;22.29;72.56;96549.69;5055027;28;20214;-67
2021/08/21 08:28:40;;;;;;;5.37;4.87;;;;;;;22.37;72.64;96540.97;5054914;28;20955;-69
2021/08/21 08:31:06;;;;;;;4.57;4.13;;;;;;;22.49;72.35;96546.63;5054950;28;20178;-74
2021/08/21 08:33:34;;;;;;;5.10;4.70;;;;;;;22.62;71.07;96551.25;5053690;28;20172;-63
2021/08/21 08:36:00;;;;;;;5.13;4.70;;;;;;;22.66;69.84;96552.25;5064987;28;20490;-62
2021/08/21 08:38:26;;;;;;;5.40;4.90;;;;;;;22.74;70.63;96543.50;5074742;28;20416;-70
2021/08/21 08:40:52;;;;;;;4.70;4.30;;;;;;;22.63;71.49;96539.41;5074576;28;20771;-67
2021/08/21 08:43:19;;;;;;;5.60;5.10;;;;;;;22.78;70.40;96541.81;5074332;28;20221;-70
2021/08/21 08:45:45;;;;;;;5.00;4.70;;;;;;;23.00;70.58;96539.22;5074303;28;20187;-67
2021/08/21 08:48:13;;;;;;;4.97;4.50;;;;;;;23.10;70.81;96541.69;5074445;28;20878;-66
2021/08/21 08:50:39;;;;;;;5.20;4.80;;;;;;;23.10;71.40;96544.38;5064832;28;20186;-66
2021/08/21 08:53:04;;;;;;;5.70;4.57;;;;;;;23.09;69.72;96539.31;5054142;28;20414;-65
2021/08/21 08:55:30;;;;;;;5.50;4.80;;;;;;;23.19;70.61;96544.47;5054222;28;20227;-65
2021/08/21 08:57:55;;;;;;;5.47;5.03;;;;;;;23.30;69.83;96540.47;5054260;28;20183;-65
2021/08/21 09:00:24;;;;;;;5.10;4.60;;;;;;;23.53;69.97;96539.44;5054711;28;20305;-66
2021/08/21 09:02:55;;;;;;;4.77;4.37;;;;;;;23.70;71.05;96538.78;5053919;28;20618;-66
2021/08/21 09:05:24;;;;;;;6.17;5.57;;;;;;;23.69;69.38;96538.00;5056598;28;20805;-65
2021/08/21 09:07:52;;;;;;;4.47;4.07;;;;;;;23.73;68.83;96543.53;5058876;28;20417;-65
2021/08/21 09:10:19;;;;;;;6.10;4.60;;;;;;;23.84;69.29;96537.63;5074124;28;20963;-66
2021/08/21 09:12:46;;;;;;;5.30;4.80;;;;;;;23.99;68.67;96542.63;5073517;28;20405;-66
2021/08/21 09:15:25;;;;;;;5.30;4.80;;;;;;;24.14;69.39;96536.09;5073688;28;20464;-65
2021/08/21 09:18:03;;;;;;;5.87;5.10;;;;;;;24.18;67.10;96537.09;5072137;28;20867;-65
2021/08/21 09:20:29;;;;;;;6.03;5.53;;;;;;;24.15;67.29;96541.16;5070284;28;20442;-66
2021/08/21 09:23:17;;;;;;;5.10;4.70;;;;;;;24.33;67.53;96534.78;5062146;28;20421;-65
2021/08/21 09:25:42;;;;;;;5.20;4.80;;;;;;;24.44;68.36;96546.84;5050090;28;20479;-65
2021/08/21 09:28:26;;;;;;;6.63;5.37;;;;;;;24.55;66.86;96528.56;5050234;28;20417;-66
2021/08/21 09:31:04;;;;;;;5.20;4.80;;;;;;;24.61;67.73;96534.59;5058133;28;20190;-65
2021/08/21 09:33:31;;;;;;;6.63;6.03;;;;;;;24.50;65.61;96531.41;5069616;28;20409;-65
2021/08/21 09:35:57;;;;;;;6.20;5.67;;;;;;;24.72;66.40;96533.25;5070063;28;20945;-66
2021/08/21 09:38:27;;;;;;;6.40;5.87;;;;;;;24.92;65.78;96530.00;5069929;28;20413;-66
2021/08/21 09:41:08;;;;;;;6.57;6.07;;;;;;;25.01;65.92;96534.28;5069736;28;20504;-66
2021/08/21 09:43:36;;;;;;;6.03;5.53;;;;;;;25.15;66.50;96537.63;5068931;28;20448;-65
2021/08/21 09:46:10;;;;;;;6.80;6.20;;;;;;;25.09;63.66;96535.44;5068833;28;20531;-66
2021/08/21 09:48:57;;;;;;;5.60;5.20;;;;;;;25.16;65.42;96528.47;5069748;28;20818;-67
2021/08/21 09:51:38;;;;;;;9.80;5.60;;;;;;;25.37;66.77;96526.78;5068613;28;20424;-66
2021/08/21 09:54:05;;;;;;;6.70;6.10;;;;;;;25.49;63.82;96526.16;5068373;28;20463;-66
2021/08/21 09:56:36;;;;;;;6.97;6.47;;;;;;;25.49;63.68;96520.78;5069576;28;20463;-64
2021/08/21 09:59:03;;;;;;;7.63;6.30;;;;;;;25.57;64.89;96517.28;5069575;28;20434;-65
2021/08/21 10:01:29;;;;;;;6.90;6.30;;;;;;;25.69;63.64;96516.66;5069664;28;20408;-64
2021/08/21 10:03:56;;;;;;;6.37;5.50;;;;;;;25.89;65.14;96516.00;5069315;28;20427;-64
2021/08/21 10:06:23;;;;;;;6.30;5.80;;;;;;;26.01;64.95;96511.56;5059605;28;20426;-65
2021/08/21 10:08:53;;;;;;;7.40;6.57;;;;;;;26.15;63.32;96509.50;5066388;28;20427;-63
2021/08/21 10:11:19;;;;;;;7.37;6.77;;;;;;;26.03;62.10;96505.84;5069635;28;20459;-64
2021/08/21 10:13:46;;;;;;;7.13;6.47;;;;;;;26.27;63.48;96516.91;5069015;28;20416;-62
2021/08/21 10:16:12;;;;;;;6.50;6.00;;;;;;;26.35;65.04;96508.00;5069560;28;20210;-65
2021/08/21 10:18:39;;;;;;;6.47;5.97;;;;;;;26.31;61.00;96512.44;5068997;28;20409;-63
2021/08/21 10:21:05;;;;;;;6.50;5.90;;;;;;;26.41;62.40;96507.53;5069467;28;20409;-64
2021/08/21 10:23:30;;;;;;;6.80;6.20;;;;;;;26.37;61.23;96501.19;5063428;28;20430;-63
2021/08/21 10:26:14;;;;;;;9.23;6.10;;;;;;;26.30;62.58;96506.28;5063546;28;20313;-62
2021/08/21 10:28:41;;;;;;;6.80;6.30;;;;;;;26.60;62.29;96495.53;5069377;28;20171;-63
2021/08/21 10:31:07;;;;;;;6.03;5.53;;;;;;;26.74;62.43;96504.22;5068890;28;20416;-63
2021/08/21 10:33:56;;;;;;;6.73;6.10;;;;;;;26.95;63.67;96513.16;5069047;28;20410;-65
2021/08/21 10:36:44;;;;;;;6.73;6.23;;;;;;;27.02;61.95;96505.34;5069243;28;20420;-64
2021/08/21 10:39:16;;;;;;;7.00;6.40;;;;;;;26.89;60.26;96512.56;5068687;28;20425;-63
2021/08/21 10:41:42;;;;;;;7.20;6.60;;;;;;;27.02;58.77;96499.94;5068755;28;20616;-61
2021/08/21 10:44:07;;;;;;;7.07;6.43;;;;;;;27.10;58.78;96502.59;5068826;28;20536;-62
2021/08/21 10:46:32;;;;;;;7.57;5.80;;;;;;;27.31;61.58;96503.44;5069010;28;20635;-61
2021/08/21 10:49:03;;;;;;;6.80;6.10;;;;;;;27.54;61.05;96492.31;5068733;28;20220;-61
2021/08/21 10:51:45;;;;;;;5.90;5.50;;;;;;;27.65;58.66;96498.88;5057175;28;20546;-61
2021/08/21 10:54:26;;;;;;;7.00;6.30;;;;;;;27.24;57.48;96507.72;5067420;28;20552;-61
2021/08/21 10:57:15;;;;;;;6.80;6.30;;;;;;;27.06;57.99;96506.28;5070113;28;20413;-60
2021/08/21 10:59:42;;;;;;;7.43;6.37;;;;;;;27.15;58.59;96498.91;5072862;28;20420;-61
2021/08/21 11:02:26;;;;;;;6.80;6.10;;;;;;;27.23;58.38;96500.78;5072862;28;20417;-60
2021/08/21 11:04:52;;;;;;;5.97;5.47;;;;;;;27.45;59.46;96496.97;5072233;28;20539;-61
2021/08/21 11:07:29;;;;;;;6.73;6.20;;;;;;;27.63;60.76;96493.78;5064034;28;20934;-61
2021/08/21 11:10:14;;;;;;;6.90;6.23;;;;;;;27.69;56.45;96487.06;5052838;28;20763;-61
2021/08/21 11:12:40;;;;;;;6.73;6.00;;;;;;;27.68;55.39;96493.59;5052498;28;20970;-62
2021/08/21 11:15:22;;;;;;;6.63;6.03;;;;;;;27.53;57.38;96491.50;5052750;28;20492;-62
2021/08/21 11:17:49;;;;;;;7.00;6.40;;;;;;;27.58;55.54;96485.91;5052195;28;20198;-60
2021/08/21 11:20:36;;;;;;;7.20;6.60;;;;;;;27.77;55.27;96488.13;5052859;28;21165;-61
2021/08/21 11:23:05;;;;;;;7.17;6.57;;;;;;;27.66;54.73;96482.34;5054297;28;20432;-62
2021/08/21 11:25:31;;;;;;;6.90;6.30;;;;;;;27.86;56.46;96483.44;5068267;28;20475;-62
2021/08/21 11:28:20;;;;;;;9.23;6.63;;;;;;;28.18;56.21;96482.63;5069625;28;20425;-62
2021/08/21 11:31:09;;;;;;;5.87;5.40;;;;;;;28.27;55.71;96477.91;5069035;28;20425;-62
2021/08/21 11:33:37;;;;;;;8.67;6.50;;;;;;;28.27;53.26;96481.44;5069163;28;20421;-62
2021/08/21 11:36:03;;;;;;;6.63;6.13;;;;;;;28.30;53.68;96478.03;5068987;28;20455;-59